createdAt,value
2017-10-26T00:00:40.448Z,99.99
2017-10-26T00:02:33.404Z,99.99
2017-10-26T00:03:33.466Z,99.99
2017-10-26T00:05:26.483Z,99.99
2017-10-26T00:06:26.523Z,99.99
2017-10-26T00:08:19.537Z,99.99
2017-10-26T00:09:19.577Z,99.99
2017-10-26T00:11:12.573Z,99.99
2017-10-26T00:12:12.639Z,99.99
2017-10-26T00:14:05.685Z,99.99
2017-10-26T00:15:05.697Z,99.99
2017-10-26T00:16:58.697Z,99.99
2017-10-26T00:17:58.754Z,99.99
2017-10-26T00:19:51.767Z,99.99
2017-10-26T00:20:51.807Z,99.99
2017-10-26T00:22:45.304Z,99.99
2017-10-26T00:23:45.365Z,99.99
2017-10-26T00:25:38.374Z,99.99
2017-10-26T00:26:38.415Z,99.99
2017-10-26T00:28:31.428Z,99.99
2017-10-26T00:29:31.471Z,99.99
2017-10-26T00:31:24.462Z,99.99
2017-10-26T00:32:24.522Z,99.99
2017-10-26T00:34:17.534Z,99.99
2017-10-26T00:35:17.578Z,99.99
2017-10-26T00:37:10.570Z,99.99
2017-10-26T00:38:10.630Z,99.99
2017-10-26T00:40:03.637Z,99.99
2017-10-26T00:41:03.679Z,99.99
2017-10-26T00:42:56.671Z,99.99
2017-10-26T00:43:56.736Z,99.99
2017-10-26T00:45:49.751Z,99.99
2017-10-26T00:46:49.792Z,99.99
2017-10-26T00:48:42.800Z,99.99
2017-10-26T00:49:42.841Z,99.99
2017-10-26T00:51:35.831Z,99.99
2017-10-26T00:52:35.891Z,99.99
2017-10-26T00:54:28.900Z,99.99
2017-10-26T00:55:28.941Z,99.99
2017-10-26T00:57:21.932Z,99.99
2017-10-26T00:58:21.993Z,99.99
2017-10-26T01:00:15.004Z,99.99
2017-10-26T01:01:15.045Z,99.99
2017-10-26T01:03:08.034Z,99.99
2017-10-26T01:04:08.093Z,99.99
2017-10-26T01:06:01.103Z,99.99
2017-10-26T01:07:01.143Z,99.99
2017-10-26T01:08:54.158Z,99.99
2017-10-26T01:09:54.193Z,99.99
2017-10-26T01:11:47.187Z,99.99
2017-10-26T01:12:47.250Z,99.99
2017-10-26T01:14:40.266Z,99.99
2017-10-26T01:15:40.313Z,99.99
2017-10-26T01:17:33.302Z,99.99
2017-10-26T01:18:33.366Z,99.99
2017-10-26T01:20:26.376Z,99.99
2017-10-26T01:21:26.421Z,99.99
2017-10-26T01:23:19.921Z,99.99
2017-10-26T01:24:19.979Z,99.99
2017-10-26T01:26:12.987Z,99.99
2017-10-26T01:27:13.028Z,99.99
2017-10-26T01:29:06.041Z,99.99
2017-10-26T01:30:06.085Z,99.99
2017-10-26T01:31:59.580Z,99.99
2017-10-26T01:32:59.638Z,99.99
2017-10-26T01:34:52.646Z,99.99
2017-10-26T01:35:52.690Z,99.99
2017-10-26T01:37:45.684Z,99.99
2017-10-26T01:38:45.746Z,99.99
2017-10-26T01:40:38.761Z,99.99
2017-10-26T01:41:38.801Z,99.99
2017-10-26T01:43:31.794Z,99.99
2017-10-26T01:44:31.858Z,99.99
2017-10-26T01:46:24.869Z,99.99
2017-10-26T01:47:24.909Z,99.99
2017-10-26T01:49:17.918Z,99.99
2017-10-26T01:50:17.960Z,99.99
2017-10-26T01:52:10.946Z,99.99
2017-10-26T01:53:11.007Z,99.99
2017-10-26T01:55:04.020Z,99.99
2017-10-26T01:56:04.062Z,99.99
2017-10-26T01:57:57.056Z,99.99
2017-10-26T01:58:57.117Z,99.99
2017-10-26T02:00:50.128Z,99.99
2017-10-26T02:01:50.169Z,99.99
2017-10-26T02:03:43.159Z,99.99
2017-10-26T02:04:43.223Z,99.99
2017-10-26T02:06:36.228Z,99.99
2017-10-26T02:07:36.270Z,99.99
2017-10-26T02:09:29.276Z,99.99
2017-10-26T02:10:29.317Z,99.99
2017-10-26T02:12:22.307Z,99.99
2017-10-26T02:13:22.366Z,99.99
2017-10-26T02:15:15.413Z,99.99
2017-10-26T02:16:15.423Z,99.99
2017-10-26T02:18:08.416Z,99.99
2017-10-26T02:19:08.476Z,99.99
2017-10-26T02:21:01.484Z,99.99
2017-10-26T02:22:01.525Z,99.99
2017-10-26T02:23:54.514Z,99.99
2017-10-26T02:24:54.576Z,99.99
2017-10-26T02:26:47.586Z,99.99
2017-10-26T02:27:47.627Z,99.99
2017-10-26T02:29:40.642Z,99.99
2017-10-26T02:30:40.686Z,99.99
2017-10-26T02:32:33.675Z,99.99
2017-10-26T02:33:33.740Z,99.99
2017-10-26T02:35:26.744Z,99.99
2017-10-26T02:36:26.786Z,99.99
2017-10-26T02:38:19.779Z,99.99
2017-10-26T02:39:19.841Z,99.99
2017-10-26T02:41:12.852Z,99.99
2017-10-26T02:42:12.894Z,99.99
2017-10-26T02:44:05.893Z,99.99
2017-10-26T02:45:05.943Z,99.99
2017-10-26T02:46:58.951Z,99.99
2017-10-26T02:47:59.014Z,99.99
2017-10-26T02:49:51.982Z,99.99
2017-10-26T02:50:52.042Z,99.99
2017-10-26T02:52:45.060Z,99.99
2017-10-26T02:53:45.101Z,99.99
2017-10-26T02:55:38.108Z,99.99
2017-10-26T02:56:38.154Z,99.99
2017-10-26T02:58:31.145Z,99.99
2017-10-26T02:59:31.199Z,99.99
2017-10-26T03:01:24.211Z,99.99
2017-10-26T03:02:24.251Z,99.99
2017-10-26T03:04:17.243Z,99.99
2017-10-26T03:05:17.303Z,99.99
2017-10-26T03:07:10.319Z,99.99
2017-10-26T03:08:10.363Z,99.99
2017-10-26T03:10:03.351Z,99.99
2017-10-26T03:11:03.414Z,99.99
2017-10-26T03:12:56.443Z,99.99
2017-10-26T03:13:56.486Z,99.99
2017-10-26T03:15:49.499Z,99.99
2017-10-26T03:16:49.537Z,99.99
2017-10-26T03:18:42.524Z,99.99
2017-10-26T03:19:42.588Z,99.99
2017-10-26T03:21:35.601Z,99.99
2017-10-26T03:22:35.643Z,99.99
2017-10-26T03:24:28.638Z,99.99
2017-10-26T03:25:28.698Z,99.99
2017-10-26T03:27:21.736Z,99.99
2017-10-26T03:28:21.776Z,99.99
2017-10-26T03:30:14.767Z,99.99
2017-10-26T03:31:14.825Z,99.99
2017-10-26T03:33:07.842Z,99.99
2017-10-26T03:34:07.886Z,99.99
2017-10-26T03:36:00.892Z,99.99
2017-10-26T03:37:00.938Z,99.99
2017-10-26T03:38:53.925Z,99.99
2017-10-26T03:39:53.985Z,99.99
2017-10-26T03:41:47.001Z,99.99
2017-10-26T03:42:47.045Z,99.99
2017-10-26T03:44:40.033Z,99.99
2017-10-26T03:45:40.091Z,99.99
2017-10-26T03:47:33.103Z,99.99
2017-10-26T03:48:33.143Z,99.99
2017-10-26T03:50:26.134Z,99.99
2017-10-26T03:51:26.196Z,99.99
2017-10-26T03:53:19.207Z,99.99
2017-10-26T03:54:19.248Z,99.99
2017-10-26T03:56:12.255Z,99.99
2017-10-26T03:57:12.297Z,99.99
2017-10-26T03:59:05.290Z,99.99
2017-10-26T04:00:05.345Z,99.99
2017-10-26T04:01:58.354Z,99.99
2017-10-26T04:02:58.396Z,99.99
2017-10-26T04:04:51.384Z,99.99
2017-10-26T04:05:51.445Z,99.99
2017-10-26T04:07:44.458Z,99.99
2017-10-26T04:08:44.501Z,99.99
2017-10-26T04:10:37.487Z,99.99
2017-10-26T04:11:37.546Z,99.99
2017-10-26T04:13:30.556Z,99.99
2017-10-26T04:14:30.597Z,99.99
2017-10-26T04:16:23.609Z,99.99
2017-10-26T04:17:23.650Z,99.99
2017-10-26T04:19:16.638Z,99.99
2017-10-26T04:20:16.700Z,99.99
2017-10-26T04:22:09.712Z,99.99
2017-10-26T04:23:09.753Z,99.99
2017-10-26T04:25:02.754Z,99.99
2017-10-26T04:26:02.816Z,99.99
2017-10-26T04:27:55.828Z,99.99
2017-10-26T04:28:55.868Z,99.99
2017-10-26T04:30:48.858Z,99.99
2017-10-26T04:31:48.920Z,99.99
2017-10-26T04:33:41.934Z,99.99
2017-10-26T04:34:41.977Z,99.99
2017-10-26T04:36:34.988Z,99.99
2017-10-26T04:37:35.039Z,99.99
2017-10-26T04:39:28.023Z,99.99
2017-10-26T04:40:28.093Z,99.99
2017-10-26T04:42:21.107Z,99.99
2017-10-26T04:43:21.142Z,99.99
2017-10-26T04:45:14.136Z,99.99
2017-10-26T04:46:14.202Z,99.99
2017-10-26T04:48:07.216Z,99.99
2017-10-26T04:49:07.258Z,99.99
2017-10-26T04:51:00.254Z,99.99
2017-10-26T04:52:00.317Z,99.99
2017-10-26T04:53:53.351Z,99.99
2017-10-26T04:54:53.394Z,99.99
2017-10-26T04:56:46.402Z,99.99
2017-10-26T04:57:46.444Z,99.99
2017-10-26T04:59:39.434Z,99.99
2017-10-26T05:00:39.491Z,99.99
2017-10-26T05:02:32.504Z,99.99
2017-10-26T05:03:32.545Z,99.99
2017-10-26T05:05:25.542Z,99.99
2017-10-26T05:06:26.561Z,99.99
2017-10-26T05:08:22.255Z,99.99
2017-10-26T05:09:18.654Z,99.99
2017-10-26T05:11:11.663Z,99.99
2017-10-26T05:12:11.705Z,99.99
2017-10-26T05:14:04.710Z,99.99
2017-10-26T05:15:04.762Z,99.99
2017-10-26T05:16:57.768Z,99.99
2017-10-26T05:17:57.805Z,99.99
2017-10-26T05:19:50.795Z,99.99
2017-10-26T05:20:50.857Z,99.99
2017-10-26T05:22:43.869Z,99.99
2017-10-26T05:23:43.913Z,99.99
2017-10-26T05:25:42.592Z,99.99
2017-10-26T05:26:41.791Z,99.99
2017-10-26T05:28:41.075Z,99.99
2017-10-26T05:29:38.155Z,99.99
2017-10-26T05:31:29.460Z,99.99
2017-10-26T05:33:45.318Z,99.99
2017-10-26T05:34:43.026Z,99.99
2017-10-26T05:36:36.799Z,99.99
2017-10-26T05:39:15.820Z,99.99
2017-10-26T05:40:15.862Z,99.99
2017-10-26T05:42:08.873Z,99.99
2017-10-26T05:43:08.911Z,99.99
2017-10-26T05:45:02.591Z,99.99
2017-10-26T05:46:01.960Z,99.99
2017-10-26T05:47:54.966Z,99.99
2017-10-26T05:48:55.008Z,99.99
2017-10-26T05:50:47.997Z,99.99
2017-10-26T05:51:48.056Z,99.99
2017-10-26T05:53:41.069Z,99.99
2017-10-26T05:54:41.109Z,99.99
2017-10-26T05:56:34.114Z,99.99
2017-10-26T05:57:34.156Z,99.99
2017-10-26T05:59:27.141Z,99.99
2017-10-26T06:00:27.204Z,99.99
2017-10-26T06:02:20.211Z,99.99
2017-10-26T06:03:20.250Z,99.99
2017-10-26T06:05:13.241Z,99.99
2017-10-26T06:06:13.301Z,99.99
2017-10-26T06:08:06.307Z,99.99
2017-10-26T06:09:06.349Z,99.99
2017-10-26T06:10:59.335Z,99.99
2017-10-26T06:11:59.394Z,99.99
2017-10-26T06:13:52.414Z,99.99
2017-10-26T06:14:52.458Z,99.99
2017-10-26T06:16:45.483Z,99.99
2017-10-26T06:17:45.509Z,99.99
2017-10-26T06:19:38.495Z,99.99
2017-10-26T06:20:38.558Z,99.99
2017-10-26T06:22:31.565Z,99.99
2017-10-26T06:23:31.601Z,99.99
2017-10-26T06:25:24.595Z,99.99
2017-10-26T06:26:24.656Z,99.99
2017-10-26T06:28:17.662Z,99.99
2017-10-26T06:29:17.694Z,99.99
2017-10-26T06:31:10.681Z,99.99
2017-10-26T06:32:10.743Z,99.99
2017-10-26T06:34:03.749Z,99.99
2017-10-26T06:35:03.792Z,99.99
2017-10-26T06:36:56.797Z,99.99
2017-10-26T06:37:56.837Z,99.99
2017-10-26T06:39:49.827Z,99.99
2017-10-26T06:40:49.886Z,99.99
2017-10-26T06:42:42.894Z,99.99
2017-10-26T06:43:42.952Z,99.99
2017-10-26T06:45:35.927Z,99.99
2017-10-26T06:46:35.988Z,99.99
2017-10-26T06:48:28.990Z,99.99
2017-10-26T06:49:29.029Z,99.99
2017-10-26T06:51:22.021Z,99.99
2017-10-26T06:52:22.084Z,99.99
2017-10-26T06:54:15.092Z,99.99
2017-10-26T06:55:15.134Z,99.99
2017-10-26T06:57:08.138Z,99.99
2017-10-26T06:58:08.187Z,99.99
2017-10-26T07:00:01.171Z,99.99
2017-10-26T07:01:01.383Z,99.99
2017-10-26T07:02:54.238Z,99.99
2017-10-26T07:03:54.277Z,99.99
2017-10-26T07:05:47.284Z,99.99
2017-10-26T07:06:47.325Z,99.99
2017-10-26T07:08:40.367Z,99.99
2017-10-26T07:09:40.373Z,99.99
2017-10-26T07:11:33.385Z,99.99
2017-10-26T07:12:33.428Z,99.99
2017-10-26T07:14:26.440Z,99.99
2017-10-26T07:15:26.484Z,99.99
2017-10-26T07:17:19.476Z,99.99
2017-10-26T07:18:19.539Z,99.99
2017-10-26T07:20:12.550Z,99.99
2017-10-26T07:21:12.590Z,99.99
2017-10-26T07:23:05.603Z,99.99
2017-10-26T07:24:05.646Z,99.99
2017-10-26T07:25:58.738Z,99.99
2017-10-26T07:26:58.695Z,99.99
2017-10-26T07:28:51.714Z,99.99
2017-10-26T07:29:51.750Z,99.99
2017-10-26T07:31:44.741Z,99.99
2017-10-26T07:32:44.802Z,99.99
2017-10-26T07:34:37.838Z,99.99
2017-10-26T07:35:37.850Z,99.99
2017-10-26T07:37:30.877Z,99.99
2017-10-26T07:38:30.938Z,99.99
2017-10-26T07:40:23.896Z,99.99
2017-10-26T07:41:23.959Z,99.99
2017-10-26T07:43:16.958Z,99.99
2017-10-26T07:44:16.997Z,99.99
2017-10-26T07:46:09.994Z,99.99
2017-10-26T07:47:10.049Z,99.99
2017-10-26T07:49:03.070Z,99.99
2017-10-26T07:50:03.156Z,99.99
2017-10-26T07:51:56.137Z,99.99
2017-10-26T07:52:56.227Z,99.99
2017-10-26T07:54:49.177Z,99.99
2017-10-26T07:55:49.214Z,99.99
2017-10-26T07:57:42.205Z,99.99
2017-10-26T07:58:42.484Z,99.99
2017-10-26T08:00:35.325Z,99.99
2017-10-26T08:01:35.323Z,99.99
2017-10-26T08:03:28.355Z,99.99
2017-10-26T08:04:28.387Z,99.99
2017-10-26T08:06:21.366Z,99.99
2017-10-26T08:07:21.423Z,99.99
2017-10-26T08:09:14.432Z,99.99
2017-10-26T08:10:14.474Z,99.99
2017-10-26T08:12:07.486Z,99.99
2017-10-26T08:13:07.541Z,99.99
2017-10-26T08:15:00.545Z,99.99
2017-10-26T08:16:00.597Z,99.99
2017-10-26T08:17:53.576Z,99.99
2017-10-26T08:18:53.638Z,99.99
2017-10-26T08:20:46.698Z,99.99
2017-10-26T08:21:46.706Z,99.99
2017-10-26T08:23:39.696Z,99.99
2017-10-26T08:24:39.762Z,99.99
2017-10-26T08:26:34.281Z,99.99
2017-10-26T08:27:34.327Z,99.99
2017-10-26T08:29:27.309Z,99.99
2017-10-26T08:30:27.373Z,99.99
2017-10-26T08:32:20.390Z,99.99
2017-10-26T08:33:20.444Z,99.99
2017-10-26T08:35:13.425Z,99.99
2017-10-26T08:36:13.489Z,99.99
2017-10-26T08:38:06.511Z,99.99
2017-10-26T08:39:06.549Z,99.99
2017-10-26T08:40:59.563Z,99.99
2017-10-26T08:41:59.605Z,99.99
2017-10-26T08:43:52.594Z,99.99
2017-10-26T08:44:52.654Z,99.99
2017-10-26T08:46:45.708Z,99.99
2017-10-26T08:47:45.708Z,99.99
2017-10-26T08:49:38.711Z,99.99
2017-10-26T08:50:38.780Z,99.99
2017-10-26T08:52:31.861Z,99.99
2017-10-26T08:53:31.870Z,99.99
2017-10-26T08:55:24.828Z,99.99
2017-10-26T08:56:24.882Z,99.99
2017-10-26T08:58:17.895Z,99.99
2017-10-26T08:59:17.936Z,99.99
2017-10-26T09:01:10.934Z,99.99
2017-10-26T09:02:10.996Z,99.99
2017-10-26T09:04:04.017Z,99.99
2017-10-26T09:05:04.055Z,99.99
2017-10-26T09:06:57.043Z,99.99
2017-10-26T09:07:57.104Z,99.99
2017-10-26T09:09:50.130Z,99.99
2017-10-26T09:10:50.162Z,99.99
2017-10-26T09:12:43.180Z,99.99
2017-10-26T09:13:43.225Z,99.99
2017-10-26T09:15:36.216Z,99.99
2017-10-26T09:16:36.270Z,99.99
2017-10-26T09:18:29.279Z,99.99
2017-10-26T09:19:29.320Z,99.99
2017-10-26T09:21:22.308Z,99.99
2017-10-26T09:22:22.369Z,99.99
2017-10-26T09:24:15.381Z,99.99
2017-10-26T09:25:15.422Z,99.99
2017-10-26T09:27:08.409Z,99.99
2017-10-26T09:28:08.469Z,99.99
2017-10-26T09:30:01.478Z,99.99
2017-10-26T09:31:01.518Z,99.99
2017-10-26T09:32:54.505Z,99.99
2017-10-26T09:33:54.567Z,99.99
2017-10-26T09:35:47.577Z,99.99
2017-10-26T09:36:47.620Z,99.99
2017-10-26T09:38:40.612Z,99.99
2017-10-26T09:39:40.676Z,99.99
2017-10-26T09:41:33.689Z,99.99
2017-10-26T09:42:33.733Z,99.99
2017-10-26T09:44:26.750Z,99.99
2017-10-26T09:45:26.784Z,99.99
2017-10-26T09:47:19.776Z,99.99
2017-10-26T09:48:19.837Z,99.99
2017-10-26T09:50:12.845Z,99.99
2017-10-26T09:51:12.885Z,99.99
2017-10-26T09:53:05.877Z,99.99
2017-10-26T09:54:05.938Z,99.99
2017-10-26T09:55:58.951Z,99.99
2017-10-26T09:56:59.001Z,99.99
2017-10-26T09:58:51.983Z,99.99
2017-10-26T09:59:52.042Z,99.99
2017-10-26T10:01:45.070Z,99.99
2017-10-26T10:02:45.094Z,99.99
2017-10-26T10:04:38.091Z,99.99
2017-10-26T10:05:38.147Z,99.99
2017-10-26T10:07:31.163Z,99.99
2017-10-26T10:08:31.202Z,99.99
2017-10-26T10:10:24.194Z,99.99
2017-10-26T10:11:24.255Z,99.99
2017-10-26T10:13:17.265Z,99.99
2017-10-26T10:14:17.309Z,99.99
2017-10-26T10:16:10.330Z,99.99
2017-10-26T10:17:10.372Z,99.99
2017-10-26T10:19:03.352Z,99.99
2017-10-26T10:20:03.411Z,99.99
2017-10-26T10:21:56.421Z,99.99
2017-10-26T10:22:56.492Z,99.99
2017-10-26T10:24:49.453Z,99.99
2017-10-26T10:25:49.514Z,99.99
2017-10-26T10:27:42.525Z,99.99
2017-10-26T10:28:42.566Z,99.99
2017-10-26T10:30:35.558Z,99.99
2017-10-26T10:31:35.620Z,99.99
2017-10-26T10:33:28.632Z,99.99
2017-10-26T10:34:28.672Z,99.99
2017-10-26T10:36:21.665Z,99.99
2017-10-26T10:37:21.774Z,99.99
2017-10-26T10:39:14.741Z,99.99
2017-10-26T10:40:14.780Z,99.99
2017-10-26T10:42:07.773Z,99.99
2017-10-26T10:43:07.836Z,99.99
2017-10-26T10:45:00.847Z,99.99
2017-10-26T10:46:00.893Z,99.99
2017-10-26T10:47:53.902Z,99.99
2017-10-26T10:48:53.942Z,99.99
2017-10-26T10:50:47.086Z,99.99
2017-10-26T10:51:47.009Z,99.99
2017-10-26T10:53:40.085Z,99.99
2017-10-26T10:54:40.063Z,99.99
2017-10-26T10:56:33.063Z,99.99
2017-10-26T10:57:33.118Z,99.99
2017-10-26T10:59:26.131Z,99.99
2017-10-26T11:00:26.173Z,99.99
2017-10-26T11:02:19.167Z,99.99
2017-10-26T11:03:19.230Z,99.99
2017-10-26T11:05:12.248Z,99.99
2017-10-26T11:06:12.290Z,99.99
2017-10-26T11:08:05.285Z,99.99
2017-10-26T11:09:05.349Z,99.99
2017-10-26T11:10:58.362Z,99.99
2017-10-26T11:11:58.408Z,99.99
2017-10-26T11:13:51.398Z,99.99
2017-10-26T11:14:51.460Z,99.99
2017-10-26T11:16:44.478Z,99.99
2017-10-26T11:17:44.526Z,99.99
2017-10-26T11:19:37.515Z,99.99
2017-10-26T11:20:37.580Z,99.99
2017-10-26T11:22:30.593Z,99.99
2017-10-26T11:23:30.633Z,99.99
2017-10-26T11:25:23.647Z,99.99
2017-10-26T11:26:23.691Z,99.99
2017-10-26T11:28:16.701Z,99.99
2017-10-26T11:29:16.752Z,99.99
2017-10-26T11:31:09.769Z,99.99
2017-10-26T11:32:09.818Z,99.99
2017-10-26T11:34:02.808Z,99.99
2017-10-26T11:35:02.871Z,99.99
2017-10-26T11:36:55.885Z,99.99
2017-10-26T11:37:55.925Z,99.92
2017-10-26T11:39:48.919Z,99.97
2017-10-26T11:40:48.984Z,99.99
2017-10-26T11:42:41.997Z,98.91
2017-10-26T11:43:42.040Z,99.58
2017-10-26T11:45:35.033Z,99.40
2017-10-26T11:46:35.096Z,99.49
2017-10-26T11:48:28.109Z,99.99
2017-10-26T11:49:28.152Z,99.10
2017-10-26T11:51:21.147Z,99.99
2017-10-26T11:52:21.210Z,99.87
2017-10-26T11:54:14.224Z,99.99
2017-10-26T11:55:14.269Z,99.49
2017-10-26T11:57:07.285Z,99.97
2017-10-26T11:58:07.322Z,99.99
2017-10-26T12:00:00.315Z,99.99
2017-10-26T12:01:00.398Z,99.99
2017-10-26T12:02:53.393Z,99.99
2017-10-26T12:03:53.435Z,99.99
2017-10-26T12:05:46.428Z,99.99
2017-10-26T12:06:46.493Z,99.99
2017-10-26T12:08:39.505Z,99.99
2017-10-26T12:09:39.550Z,99.99
2017-10-26T12:11:32.546Z,99.99
2017-10-26T12:12:32.608Z,99.99
2017-10-26T12:14:25.623Z,99.99
2017-10-26T12:15:25.664Z,99.99
2017-10-26T12:17:18.656Z,99.99
2017-10-26T12:18:18.722Z,99.99
2017-10-26T12:20:11.736Z,99.99
2017-10-26T12:21:11.778Z,99.99
2017-10-26T12:23:04.771Z,99.99
2017-10-26T12:24:04.837Z,99.99
2017-10-26T12:25:57.852Z,99.99
2017-10-26T12:26:57.897Z,99.99
2017-10-26T12:28:50.888Z,99.99
2017-10-26T12:29:50.954Z,99.99
2017-10-26T12:31:43.968Z,99.99
2017-10-26T12:32:44.010Z,99.99
2017-10-26T12:34:37.002Z,99.99
2017-10-26T12:35:37.070Z,99.99
2017-10-26T12:37:30.081Z,99.99
2017-10-26T12:38:30.124Z,99.99
2017-10-26T12:40:23.118Z,99.49
2017-10-26T12:41:23.180Z,98.53
2017-10-26T12:43:16.194Z,99.58
2017-10-26T12:44:16.237Z,99.68
2017-10-26T12:46:09.255Z,99.68
2017-10-26T12:47:09.293Z,99.99
2017-10-26T12:49:02.286Z,99.99
2017-10-26T12:50:02.353Z,99.87
2017-10-26T12:51:55.391Z,99.99
2017-10-26T12:52:55.410Z,99.99
2017-10-26T12:54:48.401Z,99.82
2017-10-26T12:55:48.466Z,99.63
2017-10-26T12:57:41.484Z,98.86
2017-10-26T12:58:41.527Z,98.86
2017-10-26T13:00:34.519Z,98.82
2017-10-26T13:01:34.583Z,99.05
2017-10-26T13:03:27.597Z,99.58
2017-10-26T13:04:27.639Z,99.99
2017-10-26T13:06:20.632Z,99.87
2017-10-26T13:07:20.695Z,99.99
2017-10-26T13:09:13.712Z,99.99
2017-10-26T13:10:13.755Z,99.99
2017-10-26T13:12:06.745Z,99.99
2017-10-26T13:13:06.809Z,99.99
2017-10-26T13:14:59.824Z,99.49
2017-10-26T13:15:59.868Z,99.68
2017-10-26T13:17:52.859Z,99.49
2017-10-26T13:18:52.924Z,99.49
2017-10-26T13:20:45.942Z,98.82
2017-10-26T13:21:45.985Z,99.99
2017-10-26T13:23:39.484Z,98.86
2017-10-26T13:24:39.547Z,99.44
2017-10-26T13:26:32.565Z,99.73
2017-10-26T13:27:32.608Z,99.44
2017-10-26T13:29:25.621Z,98.82
2017-10-26T13:30:25.665Z,98.43
2017-10-26T13:32:18.670Z,97.47
2017-10-26T13:33:18.733Z,97.57
2017-10-26T13:35:11.747Z,98.63
2017-10-26T13:36:11.789Z,98.43
2017-10-26T13:38:04.782Z,98.96
2017-10-26T13:39:04.845Z,99.99
2017-10-26T13:40:57.899Z,99.99
2017-10-26T13:41:57.900Z,99.25
2017-10-26T13:43:50.893Z,98.91
2017-10-26T13:44:50.956Z,99.99
2017-10-26T13:46:43.969Z,99.87
2017-10-26T13:47:44.012Z,98.38
2017-10-26T13:49:37.001Z,99.15
2017-10-26T13:50:37.066Z,98.58
2017-10-26T13:52:30.087Z,98.48
2017-10-26T13:53:30.123Z,98.67
2017-10-26T13:55:23.118Z,99.63
2017-10-26T13:56:23.182Z,98.53
2017-10-26T13:58:16.196Z,99.49
2017-10-26T13:59:16.238Z,99.49
2017-10-26T14:01:09.230Z,99.99
2017-10-26T14:02:09.302Z,99.99
2017-10-26T14:04:02.306Z,99.99
2017-10-26T14:05:02.350Z,99.99
2017-10-26T14:06:55.381Z,99.99
2017-10-26T14:07:55.417Z,99.99
2017-10-26T14:09:48.407Z,99.99
2017-10-26T14:10:48.471Z,99.99
2017-10-26T14:12:41.483Z,99.99
2017-10-26T14:13:41.808Z,99.99
2017-10-26T14:15:34.520Z,99.99
2017-10-26T14:16:34.585Z,99.99
2017-10-26T14:18:27.594Z,99.39
2017-10-26T14:19:27.638Z,99.68
2017-10-26T14:21:20.631Z,99.68
2017-10-26T14:22:20.697Z,99.99
2017-10-26T14:24:14.216Z,99.39
2017-10-26T14:25:14.257Z,99.29
2017-10-26T14:27:07.250Z,99.99
2017-10-26T14:28:07.315Z,99.29
2017-10-26T14:30:00.331Z,99.68
2017-10-26T14:31:00.374Z,99.99
2017-10-26T14:32:53.371Z,99.49
2017-10-26T14:33:53.447Z,99.99
2017-10-26T14:35:46.449Z,99.99
2017-10-26T14:36:46.494Z,99.87
2017-10-26T14:38:39.513Z,99.39
2017-10-26T14:39:39.569Z,99.99
2017-10-26T14:41:32.548Z,99.91
2017-10-26T14:42:32.609Z,99.49
2017-10-26T14:44:25.668Z,98.38
2017-10-26T14:45:25.666Z,97.81
2017-10-26T14:47:18.661Z,97.23
2017-10-26T14:48:18.726Z,97.71
2017-10-26T14:50:11.818Z,98.57
2017-10-26T14:51:11.785Z,97.71
2017-10-26T14:53:04.773Z,97.33
2017-10-26T14:54:04.838Z,98.38
2017-10-26T14:55:57.851Z,98.00
2017-10-26T14:56:57.894Z,98.57
2017-10-26T14:58:50.889Z,98.67
2017-10-26T14:59:50.954Z,98.57
2017-10-26T15:01:43.967Z,98.57
2017-10-26T15:02:44.009Z,98.67
2017-10-26T15:04:37.000Z,99.73
2017-10-26T15:05:37.065Z,99.82
2017-10-26T15:07:30.085Z,99.87
2017-10-26T15:08:30.129Z,99.58
2017-10-26T15:10:23.142Z,99.99
2017-10-26T15:11:23.182Z,99.77
2017-10-26T15:13:16.177Z,99.77
2017-10-26T15:14:16.236Z,99.99
2017-10-26T15:16:09.254Z,99.99
2017-10-26T15:17:09.297Z,99.99
2017-10-26T15:19:02.311Z,99.99
2017-10-26T15:20:02.353Z,99.99
2017-10-26T15:21:55.369Z,99.99
2017-10-26T15:22:55.412Z,99.99
2017-10-26T15:24:48.413Z,99.99
2017-10-26T15:25:48.469Z,99.99
2017-10-26T15:27:41.478Z,99.99
2017-10-26T15:28:41.524Z,99.99
2017-10-26T15:30:34.517Z,99.99
2017-10-26T15:31:34.583Z,99.99
2017-10-26T15:33:27.608Z,99.99
2017-10-26T15:34:27.650Z,99.99
2017-10-26T15:36:20.648Z,99.99
2017-10-26T15:37:20.701Z,99.99
2017-10-26T15:39:13.716Z,99.99
2017-10-26T15:40:13.757Z,99.99
2017-10-26T15:42:06.765Z,99.99
2017-10-26T15:43:06.815Z,99.99
2017-10-26T15:44:59.806Z,99.99
2017-10-26T15:45:59.865Z,99.99
2017-10-26T15:47:53.886Z,99.99
2017-10-26T15:48:53.932Z,99.99
2017-10-26T15:50:46.918Z,99.99
2017-10-26T15:51:46.980Z,99.99
2017-10-26T15:53:39.992Z,99.99
2017-10-26T15:54:40.035Z,99.99
2017-10-26T15:56:33.025Z,99.99
2017-10-26T15:57:33.086Z,99.99
2017-10-26T15:59:26.098Z,99.99
2017-10-26T16:00:26.139Z,99.99
2017-10-26T16:02:19.132Z,99.99
2017-10-26T16:03:19.195Z,99.99
2017-10-26T16:05:12.206Z,99.99
2017-10-26T16:06:12.250Z,99.99
2017-10-26T16:08:05.260Z,99.99
2017-10-26T16:09:05.319Z,99.99
2017-10-26T16:10:58.294Z,99.99
2017-10-26T16:11:58.354Z,99.99
2017-10-26T16:13:51.365Z,99.99
2017-10-26T16:14:51.419Z,99.99
2017-10-26T16:16:44.398Z,99.99
2017-10-26T16:17:44.458Z,99.99
2017-10-26T16:19:37.469Z,99.99
2017-10-26T16:20:37.509Z,99.99
2017-10-26T16:22:30.500Z,99.99
2017-10-26T16:23:30.561Z,99.99
2017-10-26T16:25:23.574Z,99.99
2017-10-26T16:26:23.612Z,99.99
2017-10-26T16:28:16.605Z,99.99
2017-10-26T16:29:16.664Z,99.99
2017-10-26T16:31:09.675Z,99.99
2017-10-26T16:32:09.717Z,99.99
2017-10-26T16:34:02.748Z,99.99
2017-10-26T16:35:02.767Z,99.99
2017-10-26T16:36:55.759Z,99.99
2017-10-26T16:37:55.818Z,99.99
2017-10-26T16:39:48.835Z,99.99
2017-10-26T16:40:48.877Z,99.99
2017-10-26T16:42:41.868Z,99.99
2017-10-26T16:43:41.934Z,99.99
2017-10-26T16:45:34.942Z,99.99
2017-10-26T16:46:34.985Z,99.99
2017-10-26T16:48:27.988Z,99.99
2017-10-26T16:49:28.042Z,99.99
2017-10-26T16:51:21.297Z,99.99
2017-10-26T16:52:21.119Z,99.99
2017-10-26T16:54:14.109Z,99.99
2017-10-26T16:55:14.168Z,99.99
2017-10-26T16:57:07.178Z,99.99
2017-10-26T16:58:07.220Z,99.99
2017-10-26T17:00:00.245Z,99.99
2017-10-26T17:01:00.296Z,99.99
2017-10-26T17:02:53.271Z,99.99
2017-10-26T17:03:53.333Z,99.99
2017-10-26T17:05:46.347Z,99.99
2017-10-26T17:06:46.389Z,99.99
2017-10-26T17:08:39.381Z,99.99
2017-10-26T17:09:39.439Z,99.99
2017-10-26T17:11:32.452Z,99.99
2017-10-26T17:12:32.494Z,99.99
2017-10-26T17:14:25.485Z,99.99
2017-10-26T17:15:25.545Z,99.99
2017-10-26T17:17:18.559Z,99.99
2017-10-26T17:18:18.600Z,99.99
2017-10-26T17:20:11.591Z,99.99
2017-10-26T17:21:11.653Z,99.99
2017-10-26T17:23:04.669Z,99.99
2017-10-26T17:24:04.713Z,99.99
2017-10-26T17:25:57.708Z,99.99
2017-10-26T17:26:57.765Z,99.99
2017-10-26T17:28:50.774Z,99.99
2017-10-26T17:29:50.814Z,99.99
2017-10-26T17:31:43.825Z,99.99
2017-10-26T17:32:43.870Z,99.99
2017-10-26T17:34:36.880Z,99.99
2017-10-26T17:35:36.942Z,99.99
2017-10-26T17:37:29.933Z,99.99
2017-10-26T17:38:29.976Z,99.99
2017-10-26T17:40:22.967Z,99.99
2017-10-26T17:41:23.027Z,99.99
2017-10-26T17:43:16.040Z,99.99
2017-10-26T17:44:16.080Z,99.99
2017-10-26T17:46:09.073Z,99.99
2017-10-26T17:47:09.135Z,99.99
2017-10-26T17:49:02.137Z,99.99
2017-10-26T17:50:02.178Z,99.99
2017-10-26T17:51:55.670Z,99.99
2017-10-26T17:52:55.732Z,99.99
2017-10-26T17:54:48.743Z,99.99
2017-10-26T17:55:48.786Z,99.99
2017-10-26T17:57:41.776Z,99.99
2017-10-26T17:58:41.884Z,99.99
2017-10-26T18:00:34.847Z,99.99
2017-10-26T18:01:34.889Z,99.99
2017-10-26T18:03:27.905Z,99.99
2017-10-26T18:04:27.949Z,99.99
2017-10-26T18:06:20.940Z,99.99
2017-10-26T18:07:20.998Z,99.99
2017-10-26T18:09:14.014Z,99.99
2017-10-26T18:10:14.057Z,99.99
2017-10-26T18:12:07.047Z,99.99
2017-10-26T18:13:07.108Z,99.99
2017-10-26T18:15:00.120Z,99.99
2017-10-26T18:16:00.161Z,99.99
2017-10-26T18:17:53.152Z,99.99
2017-10-26T18:18:53.218Z,99.99
2017-10-26T18:20:46.227Z,99.99
2017-10-26T18:21:46.303Z,99.99
2017-10-26T18:23:39.815Z,99.99
2017-10-26T18:24:39.826Z,99.99
2017-10-26T18:26:32.840Z,99.99
2017-10-26T18:27:32.885Z,99.99
2017-10-26T18:29:25.907Z,99.99
2017-10-26T18:30:25.949Z,99.99
2017-10-26T18:32:18.967Z,99.99
2017-10-26T18:33:18.997Z,99.99
2017-10-26T18:35:12.023Z,99.99
2017-10-26T18:36:12.058Z,99.99